Grandview Heights, Ohio
Current Conditions -  °F | °C
As of 9:53 AM on Friday 19 Dec 2014 (Local Time) from KOSU Reporting Station
Haze Haze  
Wind Chill: 28°   Ceiling: 2200
Heat Index: 28°   Visibility: 5mi
Dew Point: 22°   Wind: 3mph
Humidity: 78%   Direction: 320°NW
Pressure: 30.27"   Gusts: NA
Location:  39.987°N, 83.0425°W
Report Text: KOSU 191453Z 32003KT 5SM HZ FEW015 OVC022 M02/M06 A3027 RMK AO2 SLP260 T10221056 53010
Loading
Personal Weather Stations






























Interactive Weather Map New forecast layout! Learn more

10-Day Weather Forecast

Advertisements
Track Severe Weather on mobile